Time;durP1;ratioP1;P1;durP2;ratioP2;P2;SDS_P1;SDS_P2;PMS_P1;PMS_P2;Temp;Humidity;BMP_temperature;BMP_pressure;BME280_temperature;BME280_humidity;BME280_pressure;Samples;Min_cycle;Max_cycle;Signal;HPM_P1;HPM_P2
2020/12/04 00:00:41;;;;;;;1.13;0.70;;;8.10;99.90;;;;;;4070560;29;20176;-86
2020/12/04 00:02:41;;;;;;;1.30;0.80;;;8.10;99.90;;;;;;4054963;29;20169;-86
2020/12/04 00:04:42;;;;;;;0.90;0.63;;;8.30;99.90;;;;;;4070757;29;20257;-86
2020/12/04 00:06:43;;;;;;;0.60;0.50;;;8.20;99.90;;;;;;4054838;29;20247;-86
2020/12/04 00:08:43;;;;;;;1.00;0.67;;;8.20;99.90;;;;;;4054901;29;20219;-86
2020/12/04 00:10:44;;;;;;;0.90;0.60;;;8.10;99.90;;;;;;4070664;29;20172;-86
2020/12/04 00:12:45;;;;;;;0.83;0.67;;;8.20;99.90;;;;;;4093536;23;20231;-87
2020/12/04 00:14:45;;;;;;;0.87;0.60;;;8.20;99.90;;;;;;4055237;29;20220;-87
2020/12/04 00:16:46;;;;;;;0.60;0.60;;;8.20;99.90;;;;;;4086263;29;20710;-88
2020/12/04 00:18:47;;;;;;;0.60;0.50;;;8.30;99.90;;;;;;4054949;29;20560;-89
2020/12/04 00:20:47;;;;;;;1.20;0.60;;;8.20;99.90;;;;;;4070502;29;20209;-88
2020/12/04 00:22:48;;;;;;;0.90;0.60;;;8.30;99.90;;;;;;4055069;29;20191;-87
2020/12/04 00:24:48;;;;;;;0.67;0.50;;;8.30;99.90;;;;;;4070643;29;20675;-87
2020/12/04 00:26:49;;;;;;;1.27;0.40;;;8.40;99.90;;;;;;4054768;29;20219;-90
2020/12/04 00:28:50;;;;;;;0.50;0.50;;;8.40;99.90;;;;;;4054917;29;20177;-89
2020/12/04 00:30:51;;;;;;;0.50;0.47;;;8.40;99.90;;;;;;4085874;29;20171;-90
2020/12/04 00:32:51;;;;;;;0.53;0.40;;;8.30;99.90;;;;;;4054653;29;20629;-90
2020/12/04 00:34:52;;;;;;;1.10;0.70;;;8.30;99.90;;;;;;4070397;29;20708;-92
2020/12/04 00:36:52;;;;;;;0.40;0.37;;;8.20;99.90;;;;;;4054764;29;20201;-92
2020/12/04 00:38:53;;;;;;;0.73;0.53;;;8.10;99.90;;;;;;4070092;29;20277;-90
2020/12/04 00:40:54;;;;;;;1.30;0.40;;;8.10;99.90;;;;;;4053521;29;20177;-90
2020/12/04 00:42:56;;;;;;;0.80;0.50;;;8.10;99.90;;;;;;4070075;29;20259;-90
2020/12/04 00:44:57;;;;;;;0.70;0.50;;;8.10;99.90;;;;;;4070159;29;20177;-90
2020/12/04 00:47:01;;;;;;;0.80;0.40;;;8.20;99.90;;;;;;4069985;29;20239;-92
2020/12/04 00:49:04;;;;;;;1.03;0.60;;;8.10;99.90;;;;;;4054800;29;20216;-91
2020/12/04 00:51:07;;;;;;;0.77;0.60;;;8.10;99.90;;;;;;4069976;29;20361;-90
2020/12/04 00:53:08;;;;;;;0.40;0.40;;;8.00;99.90;;;;;;4070314;29;20184;-92
2020/12/04 00:55:15;;;;;;;0.70;0.60;;;8.00;99.90;;;;;;4070481;29;20210;-91
2020/12/04 00:57:16;;;;;;;0.70;0.47;;;8.00;99.90;;;;;;4070237;29;20609;-90
2020/12/04 00:59:23;;;;;;;1.00;0.70;;;8.00;99.90;;;;;;4069973;29;20184;-90
2020/12/04 01:01:24;;;;;;;0.60;0.50;;;8.00;99.90;;;;;;4069881;29;20184;-89
2020/12/04 01:03:26;;;;;;;0.80;0.30;;;8.10;99.90;;;;;;4069881;29;20210;-89
2020/12/04 01:05:27;;;;;;;1.63;0.40;;;8.10;99.90;;;;;;4069781;29;20172;-90
2020/12/04 01:07:27;;;;;;;0.97;0.50;;;8.00;99.90;;;;;;4069688;29;20203;-91
2020/12/04 01:09:28;;;;;;;0.47;0.40;;;7.90;99.90;;;;;;4069725;29;20177;-90
2020/12/04 01:11:30;;;;;;;0.70;0.40;;;8.10;99.90;;;;;;4069433;29;20193;-90
2020/12/04 01:13:31;;;;;;;0.83;0.40;;;8.10;99.90;;;;;;4069667;29;20184;-90
2020/12/04 01:15:32;;;;;;;1.70;0.50;;;8.00;99.90;;;;;;4069492;29;20613;-91
2020/12/04 01:17:32;;;;;;;0.90;0.50;;;8.00;99.90;;;;;;4069885;29;20179;-89
2020/12/04 01:19:33;;;;;;;0.43;0.40;;;8.00;99.90;;;;;;4069612;29;20632;-90
2020/12/04 01:21:33;;;;;;;0.37;0.37;;;8.00;99.90;;;;;;4069661;29;20172;-90
2020/12/04 01:23:34;;;;;;;1.20;0.40;;;8.00;99.90;;;;;;4069558;29;20208;-90
2020/12/04 01:25:35;;;;;;;0.80;0.50;;;8.10;99.90;;;;;;4069493;29;20211;-90
2020/12/04 01:27:35;;;;;;;0.50;0.40;;;8.20;99.90;;;;;;4069416;29;20263;-89
2020/12/04 01:29:36;;;;;;;0.43;0.40;;;8.00;99.90;;;;;;4069458;29;20245;-90
2020/12/04 01:31:37;;;;;;;3.30;0.50;;;8.10;99.90;;;;;;4069485;29;20184;-92
2020/12/04 01:33:38;;;;;;;0.80;0.40;;;8.20;99.90;;;;;;4069742;29;20172;-90
2020/12/04 01:35:39;;;;;;;4.70;0.40;;;8.30;99.90;;;;;;4069418;29;20266;-91
2020/12/04 01:37:40;;;;;;;1.13;0.37;;;8.30;99.90;;;;;;4069369;29;20212;-91
2020/12/04 01:39:41;;;;;;;0.50;0.40;;;8.30;99.90;;;;;;4069416;29;20183;-91
2020/12/04 01:41:41;;;;;;;0.63;0.37;;;8.20;99.90;;;;;;4069548;29;20624;-91
2020/12/04 01:43:42;;;;;;;0.30;0.30;;;8.30;99.90;;;;;;4069340;29;20240;-92
2020/12/04 01:45:43;;;;;;;0.53;0.47;;;8.30;99.90;;;;;;4069211;29;20679;-90
2020/12/04 01:47:43;;;;;;;1.03;0.60;;;8.30;99.90;;;;;;4069434;29;20192;-92
2020/12/04 01:49:45;;;;;;;0.77;0.47;;;8.40;99.90;;;;;;4069400;29;20180;-91
2020/12/04 01:51:48;;;;;;;0.60;0.40;;;8.30;99.90;;;;;;4069402;29;20180;-90
2020/12/04 01:53:51;;;;;;;0.47;0.40;;;8.50;99.90;;;;;;4069205;29;20184;-91
2020/12/04 01:55:52;;;;;;;0.80;0.50;;;8.50;99.90;;;;;;4069104;29;20204;-92
2020/12/04 01:57:53;;;;;;;2.33;0.40;;;8.50;99.90;;;;;;4069261;29;20180;-93
2020/12/04 01:59:54;;;;;;;0.70;0.57;;;8.50;99.90;;;;;;4069058;29;20176;-91
2020/12/04 02:02:08;;;;;;;0.97;0.50;;;8.50;99.90;;;;;;4053727;29;20188;-90
2020/12/04 02:04:10;;;;;;;0.97;0.50;;;8.50;99.90;;;;;;4069099;29;20306;-91
2020/12/04 02:06:23;;;;;;;3.07;0.50;;;8.50;99.90;;;;;;4069062;29;20206;-92
2020/12/04 02:08:37;;;;;;;4.33;0.43;;;8.50;99.90;;;;;;4068856;29;20188;-92
2020/12/04 02:10:46;;;;;;;1.90;0.40;;;8.50;99.90;;;;;;4069000;29;20176;-93
2020/12/04 02:12:49;;;;;;;1.57;0.60;;;8.50;99.90;;;;;;4068861;29;20227;-92
2020/12/04 02:14:51;;;;;;;0.80;0.50;;;8.60;99.90;;;;;;4069039;29;20184;-89
2020/12/04 02:17:05;;;;;;;0.93;0.40;;;8.60;99.90;;;;;;4068917;29;20199;-90
2020/12/04 02:19:06;;;;;;;0.60;0.50;;;8.50;99.90;;;;;;4068934;29;20261;-90
2020/12/04 02:21:06;;;;;;;1.13;0.60;;;8.50;99.90;;;;;;4068862;29;20191;-91
2020/12/04 02:23:11;;;;;;;0.80;0.50;;;8.50;99.90;;;;;;4053149;29;20209;-90
2020/12/04 02:25:12;;;;;;;0.90;0.47;;;8.60;99.90;;;;;;4053452;29;20334;-92
2020/12/04 02:27:15;;;;;;;1.10;0.50;;;8.50;99.90;;;;;;4068772;29;20703;-91
2020/12/04 02:29:16;;;;;;;2.73;0.60;;;8.60;99.90;;;;;;4068786;29;20207;-90
2020/12/04 02:31:17;;;;;;;4.20;0.50;;;8.50;99.90;;;;;;4068846;29;20176;-93
2020/12/04 02:33:17;;;;;;;0.63;0.40;;;8.60;99.90;;;;;;4068709;29;20187;-93
2020/12/04 02:35:18;;;;;;;0.87;0.57;;;8.70;99.90;;;;;;4068789;29;20593;-90
2020/12/04 02:37:18;;;;;;;0.93;0.40;;;8.70;99.90;;;;;;4068805;29;20180;-93
2020/12/04 02:39:19;;;;;;;0.73;0.50;;;8.70;99.90;;;;;;4068722;29;20179;-91
2020/12/04 02:41:20;;;;;;;1.63;0.67;;;8.70;99.90;;;;;;4068613;29;20640;-92
2020/12/04 02:43:21;;;;;;;2.40;0.30;;;8.70;99.90;;;;;;4053072;29;20621;-90
2020/12/04 02:45:23;;;;;;;3.57;0.30;;;8.70;99.90;;;;;;4068691;29;20180;-90
2020/12/04 02:47:27;;;;;;;0.63;0.40;;;8.60;99.90;;;;;;4068864;29;20536;-91
2020/12/04 02:49:27;;;;;;;2.20;0.47;;;8.70;99.90;;;;;;4068599;29;20529;-92
2020/12/04 02:51:28;;;;;;;0.60;0.40;;;8.60;99.90;;;;;;4053131;29;20185;-90
2020/12/04 02:53:28;;;;;;;2.13;0.40;;;8.60;99.90;;;;;;4068576;29;20177;-90
2020/12/04 02:55:29;;;;;;;0.93;0.50;;;8.50;99.90;;;;;;4068494;29;20228;-91
2020/12/04 02:57:30;;;;;;;1.13;0.40;;;8.50;99.90;;;;;;4068604;29;20211;-91
2020/12/04 02:59:30;;;;;;;0.30;0.20;;;8.50;99.90;;;;;;4068580;29;20548;-91
2020/12/04 03:01:31;;;;;;;2.37;0.50;;;8.50;99.90;;;;;;4068590;29;20180;-91
2020/12/04 03:03:32;;;;;;;0.20;0.20;;;8.40;99.90;;;;;;4068840;29;20228;-90
2020/12/04 03:05:32;;;;;;;0.73;0.47;;;8.40;99.90;;;;;;4071005;29;20592;-89
2020/12/04 03:07:33;;;;;;;1.63;0.20;;;8.40;99.90;;;;;;4071531;29;20275;-91
2020/12/04 03:09:33;;;;;;;1.47;0.47;;;8.40;99.90;;;;;;4071544;29;20164;-91
2020/12/04 03:11:34;;;;;;;1.27;0.47;;;8.50;99.90;;;;;;4071409;29;20195;-92
2020/12/04 03:13:35;;;;;;;0.67;0.30;;;8.40;99.90;;;;;;4071433;29;20752;-90
2020/12/04 03:15:35;;;;;;;1.33;0.37;;;8.40;99.90;;;;;;4055781;29;20292;-91
2020/12/04 03:17:36;;;;;;;1.90;0.40;;;8.40;99.90;;;;;;4087146;29;20180;-91
2020/12/04 03:19:37;;;;;;;0.50;0.20;;;8.40;99.90;;;;;;4071603;29;20169;-91
2020/12/04 03:21:37;;;;;;;1.07;0.40;;;8.50;99.90;;;;;;4071718;29;20192;-91
2020/12/04 03:23:38;;;;;;;3.73;0.40;;;8.40;99.90;;;;;;4071394;29;20224;-90
2020/12/04 03:25:38;;;;;;;1.03;0.37;;;8.50;99.90;;;;;;4071493;29;20207;-92
2020/12/04 03:27:39;;;;;;;0.93;0.30;;;8.60;99.90;;;;;;4071513;29;20232;-91
2020/12/04 03:29:40;;;;;;;1.27;0.20;;;8.60;99.90;;;;;;4071292;29;20187;-91
2020/12/04 03:31:41;;;;;;;3.83;0.40;;;8.60;99.90;;;;;;4071507;29;20184;-91
2020/12/04 03:33:42;;;;;;;3.20;0.40;;;8.70;99.90;;;;;;4071354;29;20620;-91
2020/12/04 03:35:42;;;;;;;2.13;0.23;;;8.70;99.90;;;;;;4071098;29;20302;-90
2020/12/04 03:37:43;;;;;;;1.97;0.30;;;8.70;99.90;;;;;;4071548;29;20183;-95
2020/12/04 03:39:44;;;;;;;0.77;0.20;;;8.60;99.90;;;;;;4071075;29;20182;-92
2020/12/04 03:41:45;;;;;;;0.73;0.20;;;8.80;99.90;;;;;;4071273;29;20187;-91
2020/12/04 03:43:46;;;;;;;1.13;0.40;;;8.70;99.90;;;;;;4070947;29;20223;-92
2020/12/04 03:45:46;;;;;;;1.43;0.20;;;8.70;99.90;;;;;;4070964;29;20200;-92
2020/12/04 03:47:47;;;;;;;3.17;0.53;;;8.60;99.90;;;;;;4070992;29;20188;-92
2020/12/04 03:49:48;;;;;;;2.03;0.30;;;8.60;99.90;;;;;;4070838;29;20207;-91
2020/12/04 03:51:48;;;;;;;0.93;0.30;;;8.60;99.90;;;;;;4070999;29;20206;-92
2020/12/04 03:53:49;;;;;;;0.70;0.20;;;8.60;99.90;;;;;;4070979;29;20387;-92
2020/12/04 03:55:49;;;;;;;1.60;0.40;;;8.60;99.90;;;;;;4070827;29;20204;-91
2020/12/04 03:57:50;;;;;;;1.20;0.40;;;8.60;99.90;;;;;;4070921;29;20229;-90
2020/12/04 03:59:51;;;;;;;1.30;0.33;;;8.70;99.90;;;;;;4070877;29;20184;-87
2020/12/04 04:01:51;;;;;;;3.10;0.37;;;8.70;99.90;;;;;;4055289;29;20165;-89
2020/12/04 04:03:52;;;;;;;1.33;0.33;;;8.60;99.90;;;;;;4086697;29;20310;-92
2020/12/04 04:05:53;;;;;;;0.47;0.10;;;8.50;99.90;;;;;;4070744;29;20196;-89
2020/12/04 04:07:53;;;;;;;2.10;0.30;;;8.50;99.90;;;;;;4070697;29;20184;-92
2020/12/04 04:09:54;;;;;;;2.17;0.27;;;8.40;99.90;;;;;;4070592;29;20683;-92
2020/12/04 04:11:55;;;;;;;1.03;0.20;;;8.40;99.90;;;;;;4070518;29;20255;-90
2020/12/04 04:13:55;;;;;;;1.20;0.43;;;8.30;99.90;;;;;;4054948;29;20188;-92
2020/12/04 04:15:56;;;;;;;4.37;0.53;;;8.20;99.90;;;;;;4055429;29;20272;-93
2020/12/04 04:17:59;;;;;;;0.70;0.20;;;8.30;99.90;;;;;;4070594;29;20271;-93
2020/12/04 04:19:59;;;;;;;4.33;0.40;;;8.30;99.90;;;;;;4070472;29;20219;-93
2020/12/04 04:22:00;;;;;;;0.83;0.13;;;8.40;99.90;;;;;;4070530;29;20173;-93
2020/12/04 04:24:00;;;;;;;1.10;0.13;;;8.50;99.90;;;;;;4070334;29;20212;-91
2020/12/04 04:26:01;;;;;;;1.67;0.30;;;8.20;99.90;;;;;;4070269;29;20763;-91
2020/12/04 04:28:02;;;;;;;0.33;0.20;;;8.00;99.90;;;;;;4070503;29;20176;-90
2020/12/04 04:30:03;;;;;;;2.90;0.53;;;7.90;99.90;;;;;;4070330;29;20177;-90
2020/12/04 04:32:04;;;;;;;1.33;0.20;;;7.80;99.90;;;;;;4070307;29;20548;-91
2020/12/04 04:34:05;;;;;;;0.50;0.10;;;7.60;99.90;;;;;;4070330;29;20176;-90
2020/12/04 04:36:06;;;;;;;2.87;0.40;;;7.50;99.90;;;;;;4054607;29;20241;-91
2020/12/04 04:38:06;;;;;;;3.87;0.33;;;7.50;99.90;;;;;;4054838;29;20176;-89
2020/12/04 04:40:07;;;;;;;1.97;0.30;;;7.60;99.90;;;;;;4070195;29;20180;-89
2020/12/04 04:42:07;;;;;;;2.53;0.40;;;7.60;99.90;;;;;;4054569;29;20185;-89
2020/12/04 04:44:12;;;;;;;3.87;0.60;;;7.60;99.90;;;;;;4070065;29;20212;-90
2020/12/04 04:46:36;;;;;;;1.83;0.50;;;7.70;99.90;;;;;;4070085;29;20196;-91
2020/12/04 04:48:37;;;;;;;3.13;0.40;;;7.80;99.90;;;;;;4054263;29;20188;-92
2020/12/04 04:50:42;;;;;;;1.63;0.37;;;7.90;99.90;;;;;;4085735;29;20182;-90
2020/12/04 04:52:43;;;;;;;2.10;0.30;;;7.90;99.90;;;;;;4069944;29;20183;-93
2020/12/04 04:54:48;;;;;;;0.60;0.20;;;7.90;99.90;;;;;;4070120;29;20207;-92
2020/12/04 04:56:50;;;;;;;2.10;0.40;;;8.10;99.90;;;;;;4069859;29;20240;-91
2020/12/04 04:58:52;;;;;;;5.83;0.50;;;8.10;99.90;;;;;;4069904;29;20529;-90
2020/12/04 05:00:53;;;;;;;1.93;0.50;;;8.00;99.90;;;;;;4069913;29;20199;-93
2020/12/04 05:02:53;;;;;;;2.33;0.60;;;7.90;99.90;;;;;;4054244;29;20290;-89
2020/12/04 05:04:56;;;;;;;1.03;0.30;;;7.90;99.90;;;;;;4085674;29;20180;-90
2020/12/04 05:06:57;;;;;;;1.03;0.43;;;7.90;99.90;;;;;;4070065;29;20609;-92
2020/12/04 05:08:58;;;;;;;3.77;0.40;;;7.90;99.90;;;;;;4069834;29;20176;-90
2020/12/04 05:11:09;;;;;;;2.67;0.60;;;7.90;99.90;;;;;;4069753;29;20657;-89
2020/12/04 05:13:10;;;;;;;3.87;0.60;;;7.90;99.90;;;;;;4069711;29;20267;-90
2020/12/04 05:15:21;;;;;;;2.77;0.50;;;8.00;99.90;;;;;;4070002;29;20180;-90
2020/12/04 05:17:21;;;;;;;3.40;0.73;;;7.90;99.90;;;;;;4069769;29;20211;-90
2020/12/04 05:19:42;;;;;;;1.20;0.60;;;7.90;99.90;;;;;;4069645;29;20172;-93
2020/12/04 05:21:43;;;;;;;4.43;0.53;;;7.80;99.90;;;;;;4069736;29;20644;-90
2020/12/04 05:23:53;;;;;;;1.13;0.50;;;7.80;99.90;;;;;;4069431;29;20628;-89
2020/12/04 05:25:55;;;;;;;1.80;0.40;;;7.90;99.90;;;;;;4069455;29;20203;-93
2020/12/04 05:28:10;;;;;;;4.07;0.53;;;7.70;99.90;;;;;;4069257;29;20263;-89
2020/12/04 05:30:25;;;;;;;3.27;0.63;;;7.80;99.90;;;;;;4069422;29;20188;-90
2020/12/04 05:32:27;;;;;;;2.97;0.60;;;7.80;99.90;;;;;;4053770;29;20514;-92
2020/12/04 05:34:29;;;;;;;1.63;0.67;;;7.80;99.90;;;;;;4069395;29;20246;-91
2020/12/04 05:36:30;;;;;;;1.73;0.30;;;7.90;99.90;;;;;;4053666;29;20204;-91
2020/12/04 05:38:31;;;;;;;1.70;0.60;;;7.90;99.90;;;;;;4069390;29;20176;-89
2020/12/04 05:40:34;;;;;;;2.17;0.87;;;7.70;99.90;;;;;;4069691;29;20168;-90
2020/12/04 05:42:37;;;;;;;2.83;0.50;;;7.80;99.90;;;;;;4053787;29;20655;-92
2020/12/04 05:44:53;;;;;;;4.90;0.60;;;7.80;99.90;;;;;;4069242;29;20212;-93
2020/12/04 05:46:54;;;;;;;0.30;0.10;;;7.80;99.90;;;;;;4053729;29;20641;-90
2020/12/04 05:49:00;;;;;;;0.30;0.27;;;7.70;99.90;;;;;;4069219;29;20183;-91
2020/12/04 05:51:00;;;;;;;0.70;0.10;;;7.70;99.90;;;;;;4053637;29;20184;-92
2020/12/04 05:53:01;;;;;;;0.63;0.17;;;7.70;99.90;;;;;;4069063;29;20722;-93
2020/12/04 05:55:09;;;;;;;0.90;0.20;;;7.60;99.90;;;;;;4053698;29;20181;-91
2020/12/04 05:57:10;;;;;;;0.20;0.20;;;7.60;99.90;;;;;;4069125;29;20203;-90
2020/12/04 05:59:13;;;;;;;0.30;0.10;;;7.60;99.90;;;;;;4068981;29;20652;-90
2020/12/04 06:01:18;;;;;;;0.10;0.10;;;7.60;99.90;;;;;;4069079;29;20624;-92
2020/12/04 06:03:19;;;;;;;0.57;0.10;;;7.50;99.90;;;;;;4068949;29;20207;-89
2020/12/04 06:05:23;;;;;;;0.00;0.00;;;7.50;99.90;;;;;;4068946;29;20188;-92
2020/12/04 06:07:27;;;;;;;0.10;0.10;;;7.50;99.90;;;;;;4053401;29;20634;-93
2020/12/04 06:09:27;;;;;;;0.50;0.10;;;7.40;99.90;;;;;;4068943;29;20176;-92
2020/12/04 06:11:39;;;;;;;0.30;0.10;;;7.40;99.90;;;;;;4068921;29;20184;-89
2020/12/04 06:13:40;;;;;;;0.00;0.00;;;7.40;99.90;;;;;;4069188;29;20192;-92
2020/12/04 06:15:41;;;;;;;0.30;0.13;;;7.30;99.90;;;;;;4069445;29;20191;-90
2020/12/04 06:17:42;;;;;;;1.53;0.30;;;7.30;99.90;;;;;;4068885;29;20184;-90
2020/12/04 06:19:44;;;;;;;0.10;0.00;;;7.30;99.90;;;;;;4053295;29;20261;-93
2020/12/04 06:21:49;;;;;;;0.83;0.10;;;7.30;99.90;;;;;;4069052;29;20179;-90
2020/12/04 06:24:06;;;;;;;0.60;0.20;;;7.20;99.90;;;;;;4068869;29;20231;-89
2020/12/04 06:26:07;;;;;;;0.63;0.20;;;7.30;99.90;;;;;;4068785;29;20200;-93
2020/12/04 06:28:16;;;;;;;0.80;0.10;;;7.20;99.90;;;;;;4068999;29;20191;-92
2020/12/04 06:30:18;;;;;;;0.73;0.10;;;7.30;99.90;;;;;;4053252;29;20173;-93
2020/12/04 06:32:38;;;;;;;1.37;0.10;;;7.20;99.90;;;;;;4053113;29;20177;-90
2020/12/04 06:34:42;;;;;;;0.03;0.03;;;7.20;99.90;;;;;;4084726;29;20247;-92
2020/12/04 06:36:44;;;;;;;0.27;0.00;;;7.20;99.90;;;;;;4068763;29;20196;-92
2020/12/04 06:38:46;;;;;;;0.07;0.07;;;7.20;99.90;;;;;;4068803;29;20176;-93
2020/12/04 06:40:47;;;;;;;0.33;0.10;;;7.20;99.90;;;;;;4071926;29;20176;-92
2020/12/04 06:42:47;;;;;;;0.63;0.20;;;7.20;99.90;;;;;;4056546;29;20195;-90
2020/12/04 06:44:50;;;;;;;1.50;0.10;;;7.10;99.90;;;;;;4071739;29;20709;-92
2020/12/04 06:46:57;;;;;;;0.13;0.10;;;7.10;99.90;;;;;;4071832;29;20655;-90
2020/12/04 06:49:12;;;;;;;2.87;0.10;;;7.20;99.90;;;;;;4071836;29;20275;-94
2020/12/04 06:51:17;;;;;;;0.17;0.10;;;7.20;99.90;;;;;;4072073;29;20624;-90
2020/12/04 06:53:18;;;;;;;0.87;0.10;;;7.30;99.90;;;;;;4071952;29;20719;-91
2020/12/04 06:55:19;;;;;;;0.50;0.20;;;7.30;99.90;;;;;;4056107;29;20173;-90
2020/12/04 06:57:23;;;;;;;1.17;0.20;;;7.20;99.90;;;;;;4071826;29;20222;-93
2020/12/04 06:59:27;;;;;;;0.40;0.10;;;7.20;99.90;;;;;;4071837;29;20184;-89
2020/12/04 07:01:29;;;;;;;3.13;0.10;;;7.30;99.90;;;;;;4072057;29;20187;-92
2020/12/04 07:03:30;;;;;;;0.73;0.07;;;7.20;99.90;;;;;;4071755;29;20616;-91
2020/12/04 07:05:34;;;;;;;2.63;0.17;;;7.20;99.90;;;;;;4056094;29;20183;-91
2020/12/04 07:07:34;;;;;;;0.97;0.20;;;7.20;99.90;;;;;;4071691;29;20266;-92
2020/12/04 07:09:39;;;;;;;0.57;0.10;;;7.20;99.90;;;;;;4071673;29;20172;-92
2020/12/04 07:11:55;;;;;;;0.40;0.20;;;7.20;99.90;;;;;;4058667;29;20229;-94
2020/12/04 07:13:58;;;;;;;0.10;0.10;;;7.30;99.90;;;;;;4057632;29;20188;-94
2020/12/04 07:15:59;;;;;;;0.53;0.10;;;7.30;99.90;;;;;;4091155;29;20710;-93
2020/12/04 07:18:03;;;;;;;0.20;0.10;;;7.30;99.90;;;;;;4073432;29;20184;-94
2020/12/04 07:20:08;;;;;;;0.17;0.10;;;7.20;99.90;;;;;;4086880;29;20183;-95
2020/12/04 07:22:09;;;;;;;7.13;0.20;;;7.20;99.90;;;;;;4075694;29;20179;-92
2020/12/04 07:24:15;;;;;;;0.57;0.30;;;7.20;99.90;;;;;;4081187;29;20214;-95
2020/12/04 07:26:22;;;;;;;0.33;0.20;;;7.20;99.90;;;;;;4074515;29;20239;-95
2020/12/04 07:28:25;;;;;;;0.83;0.40;;;7.30;99.90;;;;;;4115673;23;20233;-94
2020/12/04 07:30:29;;;;;;;0.27;0.20;;;7.30;99.90;;;;;;4077976;29;20160;-94
2020/12/04 07:32:30;;;;;;;0.57;0.20;;;7.20;99.90;;;;;;4075594;29;20200;-93
2020/12/04 07:34:35;;;;;;;0.23;0.10;;;7.20;99.90;;;;;;4106212;29;20194;-94
2020/12/04 07:36:47;;;;;;;0.53;0.17;;;7.20;99.90;;;;;;4084030;29;20620;-94
2020/12/04 07:38:55;;;;;;;1.17;0.20;;;7.30;99.90;;;;;;4103582;23;20231;-93
2020/12/04 07:40:56;;;;;;;0.60;0.10;;;7.30;99.90;;;;;;4130486;23;20238;-95
2020/12/04 07:43:03;;;;;;;0.60;0.30;;;7.40;99.90;;;;;;4087927;29;20191;-95
2020/12/04 07:45:04;;;;;;;1.17;0.30;;;7.40;99.90;;;;;;4088897;29;20223;-92
2020/12/04 07:47:13;;;;;;;1.17;0.50;;;7.40;99.90;;;;;;4075411;29;20290;-95
2020/12/04 07:49:22;;;;;;;3.07;0.30;;;7.30;99.90;;;;;;4092280;29;20155;-95
2020/12/04 07:51:25;;;;;;;0.67;0.17;;;7.30;99.90;;;;;;4072502;29;20180;-92
2020/12/04 07:53:33;;;;;;;0.53;0.17;;;7.30;99.90;;;;;;4075375;29;20165;-95
2020/12/04 07:55:38;;;;;;;0.60;0.20;;;7.40;99.90;;;;;;4074736;29;20207;-94
2020/12/04 07:58:14;;;;;;;2.00;0.30;;;7.30;99.90;;;;;;4088144;29;20683;-93
2020/12/04 08:00:15;;;;;;;0.10;0.00;;;7.20;99.90;;;;;;4075059;29;20184;-95
2020/12/04 08:02:25;;;;;;;0.20;0.10;;;7.20;99.90;;;;;;4091347;29;20183;-92
2020/12/04 08:04:31;;;;;;;1.47;0.20;;;7.20;99.90;;;;;;4092081;29;20224;-94
2020/12/04 08:06:48;;;;;;;4.37;0.30;;;7.30;99.90;;;;;;4109546;29;20195;-94
2020/12/04 08:09:08;;;;;;;2.70;1.20;;;7.30;99.90;;;;;;4124376;23;20176;-91
2020/12/04 08:11:12;;;;;;;0.80;0.30;;;7.30;99.90;;;;;;4070919;29;20275;-94
2020/12/04 08:13:17;;;;;;;0.20;0.20;;;7.30;99.90;;;;;;4089823;29;20168;-94
2020/12/04 08:15:24;;;;;;;0.60;0.20;;;7.30;99.90;;;;;;4073289;29;20240;-93
2020/12/04 08:17:32;;;;;;;0.80;0.27;;;7.20;99.90;;;;;;4058543;29;20181;-94
2020/12/04 08:19:36;;;;;;;0.60;0.20;;;7.10;99.90;;;;;;4075595;29;20176;-93
2020/12/04 08:21:58;;;;;;;6.10;0.53;;;7.10;99.90;;;;;;4078314;29;20649;-92
2020/12/04 08:24:04;;;;;;;0.57;0.10;;;7.10;99.90;;;;;;4072426;29;20305;-93
2020/12/04 08:26:18;;;;;;;2.10;0.20;;;7.10;99.90;;;;;;4072740;29;20259;-92
2020/12/04 08:28:19;;;;;;;0.10;0.10;;;7.10;99.90;;;;;;4056051;29;20256;-93
2020/12/04 08:30:24;;;;;;;1.07;0.20;;;7.10;99.90;;;;;;4079022;29;20184;-96
2020/12/04 08:32:39;;;;;;;0.30;0.10;;;7.10;99.90;;;;;;4091138;28;20172;-92
2020/12/04 08:34:43;;;;;;;0.40;0.10;;;7.10;99.90;;;;;;4057905;29;20743;-94
2020/12/04 08:36:57;;;;;;;0.93;0.20;;;7.10;99.90;;;;;;4072933;29;20196;-92
2020/12/04 08:39:01;;;;;;;0.60;0.20;;;7.00;99.90;;;;;;4072198;29;20188;-93
2020/12/04 08:41:02;;;;;;;0.23;0.10;;;7.10;99.90;;;;;;4058408;29;20633;-95
2020/12/04 08:43:25;;;;;;;1.17;0.30;;;7.10;99.90;;;;;;4073244;29;20172;-92
2020/12/04 08:45:27;;;;;;;0.43;0.30;;;7.10;99.90;;;;;;4072167;29;20187;-92
2020/12/04 08:47:35;;;;;;;0.23;0.10;;;7.10;99.90;;;;;;4070948;29;20271;-93
2020/12/04 08:49:41;;;;;;;1.67;0.20;;;7.10;99.90;;;;;;4072855;29;20190;-94
2020/12/04 08:51:53;;;;;;;0.20;0.20;;;7.00;99.90;;;;;;4072322;29;20183;-93
2020/12/04 08:53:54;;;;;;;1.30;0.30;;;7.00;99.90;;;;;;4059696;29;20185;-93
2020/12/04 08:56:03;;;;;;;0.10;0.10;;;7.00;99.90;;;;;;4077071;29;20211;-92
2020/12/04 08:58:05;;;;;;;0.10;0.10;;;6.80;99.90;;;;;;4058023;29;20240;-93
2020/12/04 09:00:28;;;;;;;1.30;0.20;;;6.80;99.90;;;;;;4071228;29;20172;-93
2020/12/04 09:02:29;;;;;;;0.20;0.20;;;6.80;99.90;;;;;;4072856;29;20194;-92
2020/12/04 09:04:29;;;;;;;1.60;0.20;;;6.80;99.90;;;;;;4089384;29;20225;-95
2020/12/04 09:06:34;;;;;;;1.03;0.20;;;6.70;99.90;;;;;;4054522;29;20606;-94
2020/12/04 09:08:47;;;;;;;0.40;0.20;;;6.90;99.90;;;;;;4075644;29;20176;-93
2020/12/04 09:10:51;;;;;;;0.00;0.00;;;6.90;99.90;;;;;;4058269;29;20527;-93
2020/12/04 09:12:55;;;;;;;0.53;0.20;;;6.80;99.90;;;;;;4070845;29;20172;-94
2020/12/04 09:14:59;;;;;;;0.20;0.10;;;6.80;99.90;;;;;;4057421;29;20264;-95
2020/12/04 09:17:24;;;;;;;0.20;0.10;;;6.70;99.90;;;;;;4074553;29;20195;-94
2020/12/04 09:19:24;;;;;;;0.50;0.10;;;6.70;99.90;;;;;;4056075;29;20189;-93
2020/12/04 09:23:57;;;;;;;0.47;0.20;;;6.60;99.90;;;;;;4167618;23;20283;-93
2020/12/04 09:26:02;;;;;;;0.80;0.30;;;6.60;99.90;;;;;;4085152;29;20215;-94
2020/12/04 09:28:03;;;;;;;1.03;0.20;;;6.60;99.90;;;;;;4071484;29;20176;-94
2020/12/04 09:30:12;;;;;;;0.50;0.13;;;6.60;99.90;;;;;;4061455;29;20253;-94
2020/12/04 09:32:17;;;;;;;0.93;0.20;;;6.70;99.90;;;;;;4055198;29;20245;-92
2020/12/04 09:34:21;;;;;;;0.87;0.30;;;6.70;99.90;;;;;;4055869;29;20652;-93
2020/12/04 09:36:25;;;;;;;1.03;0.33;;;6.90;99.90;;;;;;4070795;29;20196;-92
2020/12/04 09:38:31;;;;;;;1.03;0.30;;;7.00;99.90;;;;;;4073281;29;20171;-92
2020/12/04 09:40:34;;;;;;;0.80;0.50;;;7.00;99.90;;;;;;4057226;29;20191;-92
2020/12/04 09:42:39;;;;;;;1.03;0.30;;;7.10;99.90;;;;;;4070981;29;20155;-93
2020/12/04 09:44:41;;;;;;;0.40;0.30;;;7.10;99.90;;;;;;4057040;29;20213;-92
2020/12/04 09:46:45;;;;;;;0.43;0.30;;;7.10;99.90;;;;;;4073182;23;20276;-93
2020/12/04 09:48:47;;;;;;;0.80;0.30;;;7.10;99.90;;;;;;4070977;29;20200;-94
2020/12/04 09:50:47;;;;;;;3.47;0.33;;;7.00;99.90;;;;;;4072684;29;20549;-93
2020/12/04 09:52:52;;;;;;;1.43;0.37;;;7.00;99.90;;;;;;4087444;29;20187;-94
2020/12/04 09:54:57;;;;;;;2.40;0.40;;;6.90;99.90;;;;;;4088414;29;20266;-95
2020/12/04 09:57:02;;;;;;;0.50;0.20;;;6.90;99.90;;;;;;4074633;29;20196;-93
2020/12/04 09:59:02;;;;;;;0.83;0.30;;;6.90;99.90;;;;;;4054852;29;20189;-95
2020/12/04 10:01:03;;;;;;;2.07;0.50;;;7.00;99.90;;;;;;4069434;29;20176;-95
2020/12/04 10:03:09;;;;;;;1.77;0.50;;;7.10;99.90;;;;;;4069602;29;20573;-93
2020/12/04 10:05:29;;;;;;;0.93;0.40;;;7.10;99.90;;;;;;4084525;23;20243;-94
2020/12/04 10:07:32;;;;;;;0.43;0.30;;;7.10;99.90;;;;;;4056050;29;20201;-94
2020/12/04 10:09:33;;;;;;;0.73;0.40;;;7.20;99.90;;;;;;4070865;29;20169;-93
2020/12/04 10:11:34;;;;;;;0.23;0.20;;;7.30;99.90;;;;;;4056685;29;20276;-94
2020/12/04 10:13:38;;;;;;;1.97;0.40;;;7.40;99.90;;;;;;4073323;29;20203;-93
2020/12/04 10:15:42;;;;;;;0.27;0.27;;;7.30;99.90;;;;;;4069936;29;20204;-95
2020/12/04 10:17:46;;;;;;;2.90;0.20;;;7.30;99.90;;;;;;4073557;29;20223;-94
2020/12/04 10:21:59;;;;;;;0.47;0.37;;;7.30;99.90;;;;;;4176745;23;20274;-92
2020/12/04 10:26:50;;;;;;;2.30;0.40;;;7.30;99.90;;;;;;4057794;29;20220;-92
2020/12/04 10:28:53;;;;;;;0.77;0.40;;;7.20;99.90;;;;;;4047152;29;20174;-93
2020/12/04 10:30:55;;;;;;;1.83;0.60;;;7.20;99.90;;;;;;4047510;29;20177;-93
2020/12/04 10:33:08;;;;;;;2.07;0.90;;;7.30;99.90;;;;;;4033131;29;20170;-95
2020/12/04 10:35:10;;;;;;;1.50;0.90;;;7.40;99.90;;;;;;4041997;29;20181;-93
2020/12/04 10:41:48;;;;;;;2.50;0.73;;;7.10;99.90;;;;;;4374916;23;21174;-93
2020/12/04 10:44:06;;;;;;;1.30;1.00;;;7.10;99.90;;;;;;4106554;23;20734;-92
2020/12/04 10:46:17;;;;;;;;;;;;;;;;;;;;;
2020/12/04 10:48:37;;;;;;;3.70;0.90;;;7.30;99.90;;;;;;4095432;29;20179;-94
2020/12/04 10:55:45;;;;;;;1.10;0.80;;;7.40;99.90;;;;;;3447211;23;21209;31
2020/12/04 10:57:50;;;;;;;1.30;0.80;;;7.30;99.90;;;;;;4031455;29;20245;-95
2020/12/04 11:09:08;;;;;;;2.27;0.90;;;7.70;99.90;;;;;;4045662;29;20185;-95
2020/12/04 11:11:32;;;;;;;0.87;0.57;;;7.70;99.90;;;;;;4016781;29;20187;-95
2020/12/04 11:14:11;;;;;;;1.47;0.53;;;7.80;99.90;;;;;;4181223;23;20328;-93
2020/12/04 11:16:12;;;;;;;1.47;0.60;;;7.70;99.90;;;;;;4084278;29;20251;-92
2020/12/04 11:18:13;;;;;;;2.13;0.67;;;7.80;99.90;;;;;;4100221;29;20629;-91
2020/12/04 11:20:16;;;;;;;0.93;0.60;;;7.80;99.90;;;;;;4089107;29;20283;-92